Skip Navigation LinksHome page > Weather > Current weather Skip Navigation Links

Current Weather

Buffalo Niagara Intl, Buffalo, N.Y.

For information only: do not use for flight planning or navigation.
Latest weather
Observation time Friday, August 14, 2020 11:54 AM EDT
Local time Friday, August 14, 2020 12:48 PM EDT
Flight conditions Visual Meteorological Conditions
Winds
Wind direction Northeast (50°)
Wind speed 15 mph
Visibility 10 mi.
Sky condition
Ceiling unlimited
Cloud layer few clouds 5,500 ft.
Cloud layer few clouds 25,000 ft.
Temperature 84°F
Dewpoint 57°F
Altimeter 30.11 in.Hg
Derived measurements
Relative humidity 40%
Heat index 84°F
Density altitude 2329 ft.
Sea-level pressure 30.09 in.Hg
Remarks
Automated weather observing station with precipitation discriminator.
METAR KBUF 141554Z 05013KT 10SM FEW055 FEW250 29/14 A3011 RMK AO2 SLP189 T02890139

Settings

Location code

InnerDrive.Weather 4.0.6770.0 Release CLR 4.0.30319.42000
Copyright ©2018 Inner Drive Technology. All rights reserved. Portions Copyright ©1986-2018 David Braverman.

Find weather

Site navigation


Skip Navigation Links

Place info

Page info

PayPal - The safer, easier way to pay online!

Return home.

Copyright ©2020 Inner Drive Technology. Purveyors of fine, hand-crafted computer software. Page printed 2020-08-14T16:48:03 UTC.